createdAt,value
2023-05-12T00:02:02.432Z,12.95
2023-05-12T00:04:31.159Z,12.49
2023-05-12T00:06:59.744Z,12.65
2023-05-12T00:09:28.531Z,12.50
2023-05-12T00:11:56.803Z,12.49
2023-05-12T00:14:25.403Z,12.56
2023-05-12T00:16:53.665Z,12.55
2023-05-12T00:19:23.801Z,12.81
2023-05-12T00:21:52.053Z,12.54
2023-05-12T00:24:20.803Z,12.40
2023-05-12T00:26:49.637Z,12.66
2023-05-12T00:29:21.663Z,12.51
2023-05-12T00:31:51.015Z,12.41
2023-05-12T00:34:19.619Z,11.96
2023-05-12T00:36:49.318Z,12.13
2023-05-12T00:39:18.012Z,11.26
2023-05-12T00:41:47.886Z,11.63
2023-05-12T00:44:18.707Z,11.65
2023-05-12T00:46:47.070Z,11.95
2023-05-12T00:49:15.834Z,11.67
2023-05-12T00:51:44.378Z,11.84
2023-05-12T00:54:14.381Z,12.01
2023-05-12T00:56:43.425Z,11.88
2023-05-12T00:59:12.219Z,11.74
2023-05-12T01:01:40.541Z,11.45
2023-05-12T01:04:09.224Z,11.67
2023-05-12T01:06:40.421Z,11.84
2023-05-12T01:09:09.385Z,11.64
2023-05-12T01:11:39.106Z,11.98
2023-05-12T01:14:07.789Z,11.68
2023-05-12T01:16:37.910Z,11.73
2023-05-12T01:19:08.309Z,11.77
2023-05-12T01:21:37.208Z,11.42
2023-05-12T01:24:08.933Z,11.80
2023-05-12T01:26:38.405Z,12.46
2023-05-12T01:29:07.710Z,11.71
2023-05-12T01:31:36.188Z,11.53
2023-05-12T01:34:04.944Z,11.60
2023-05-12T01:36:34.278Z,11.28
2023-05-12T01:39:02.862Z,11.46
2023-05-12T01:41:31.206Z,11.32
2023-05-12T01:44:01.651Z,11.69
2023-05-12T01:46:30.028Z,11.10
2023-05-12T01:48:58.696Z,11.54
2023-05-12T01:51:26.844Z,11.25
2023-05-12T01:53:55.526Z,11.24
2023-05-12T01:56:24.015Z,11.41
2023-05-12T01:58:52.469Z,11.21
2023-05-12T02:01:23.504Z,11.65
2023-05-12T02:03:52.292Z,11.10
2023-05-12T02:06:21.502Z,11.09
2023-05-12T02:08:51.051Z,11.40
2023-05-12T02:11:19.484Z,11.09
2023-05-12T02:13:48.176Z,11.13
2023-05-12T02:16:17.155Z,11.15
2023-05-12T02:18:47.213Z,11.41
2023-05-12T02:21:15.640Z,11.22
2023-05-12T02:23:44.133Z,10.90
2023-05-12T02:26:12.443Z,10.93
2023-05-12T02:28:41.645Z,10.96
2023-05-12T02:31:09.976Z,10.94
2023-05-12T02:33:38.621Z,11.00
2023-05-12T02:36:09.528Z,11.17
2023-05-12T02:38:39.956Z,10.78
2023-05-12T02:41:09.263Z,10.80
2023-05-12T02:43:37.704Z,10.78
2023-05-12T02:46:06.506Z,10.42
2023-05-12T02:48:35.128Z,10.62
2023-05-12T02:51:03.514Z,10.60
2023-05-12T02:53:33.824Z,10.98
2023-05-12T02:56:02.556Z,10.76
2023-05-12T02:58:31.218Z,10.45
2023-05-12T03:01:09.420Z,10.62
2023-05-12T03:03:39.733Z,10.53
2023-05-12T03:06:08.889Z,10.38
2023-05-12T03:08:38.725Z,10.47
2023-05-12T03:11:07.296Z,10.32
2023-05-12T03:13:36.019Z,10.48
2023-05-12T03:16:04.607Z,10.22
2023-05-12T03:18:33.325Z,10.00
2023-05-12T03:21:04.732Z,10.33
2023-05-12T03:23:33.310Z,10.48
2023-05-12T03:26:03.154Z,10.94
2023-05-12T03:28:32.723Z,10.65
2023-05-12T03:31:01.366Z,10.28
2023-05-12T03:33:30.413Z,10.68
2023-05-12T03:35:58.880Z,10.66
2023-05-12T03:38:27.605Z,10.94
2023-05-12T03:41:06.364Z,11.44
2023-05-12T03:43:36.974Z,11.29
2023-05-12T03:46:05.540Z,11.15
2023-05-12T03:48:34.199Z,11.56
2023-05-12T03:51:02.486Z,11.43
2023-05-12T03:53:31.722Z,11.46
2023-05-12T03:56:04.886Z,11.43
2023-05-12T03:58:35.300Z,12.02
2023-05-12T04:01:03.734Z,11.10
2023-05-12T04:03:32.657Z,11.70
2023-05-12T04:06:01.930Z,11.93
2023-05-12T04:08:30.854Z,12.13
2023-05-12T04:10:59.811Z,12.21
2023-05-12T04:13:28.979Z,12.70
2023-05-12T04:15:59.713Z,12.96
2023-05-12T04:18:29.232Z,12.75
2023-05-12T04:20:57.781Z,12.85
2023-05-12T04:23:26.940Z,13.36
2023-05-12T04:25:55.312Z,13.30
2023-05-12T04:28:24.260Z,13.88
2023-05-12T04:30:52.689Z,13.95
2023-05-12T04:33:22.821Z,14.18
2023-05-12T04:35:50.967Z,13.67
2023-05-12T04:38:19.580Z,13.99
2023-05-12T04:40:47.741Z,14.37
2023-05-12T04:45:47.431Z,14.76
2023-05-12T04:48:16.285Z,14.69
2023-05-12T04:50:46.207Z,15.58
2023-05-12T04:53:14.844Z,15.25
2023-05-12T04:55:46.097Z,15.80
2023-05-12T04:58:14.597Z,17.27
2023-05-12T05:00:44.211Z,16.15
2023-05-12T05:03:13.051Z,16.13
2023-05-12T05:05:41.412Z,16.48
2023-05-12T05:08:11.876Z,16.94
2023-05-12T05:10:40.160Z,16.66
2023-05-12T05:13:08.923Z,17.52
2023-05-12T05:15:37.354Z,17.86
2023-05-12T05:18:06.562Z,17.43
2023-05-12T05:20:35.603Z,17.17
2023-05-12T05:23:04.296Z,16.97
2023-05-12T05:25:34.179Z,17.31
2023-05-12T05:28:02.980Z,17.17
2023-05-12T05:30:31.276Z,17.51
2023-05-12T05:33:00.059Z,17.74
2023-05-12T05:35:28.414Z,18.52
2023-05-12T05:37:57.011Z,18.80
2023-05-12T05:40:25.555Z,18.86
2023-05-12T05:42:55.612Z,18.88
2023-05-12T05:45:23.954Z,18.81
2023-05-12T05:47:53.397Z,18.98
2023-05-12T05:50:21.996Z,19.59
2023-05-12T05:52:50.766Z,20.60
2023-05-12T05:55:19.463Z,21.13
2023-05-12T05:57:49.081Z,21.80
2023-05-12T06:00:19.369Z,22.73
2023-05-12T06:02:48.760Z,22.82
2023-05-12T06:05:18.363Z,22.75
2023-05-12T06:07:47.177Z,22.99
2023-05-12T06:10:15.604Z,23.30
2023-05-12T06:12:44.416Z,23.17
2023-05-12T06:15:12.944Z,23.02
2023-05-12T06:17:43.247Z,23.40
2023-05-12T06:20:13.533Z,23.61
2023-05-12T06:22:44.598Z,23.51
2023-05-12T06:25:13.021Z,23.06
2023-05-12T06:27:41.622Z,23.06
2023-05-12T06:30:12.996Z,23.84
2023-05-12T06:32:44.371Z,25.05
2023-05-12T06:35:13.507Z,24.80
2023-05-12T06:37:45.042Z,24.29
2023-05-12T06:40:13.211Z,25.23
2023-05-12T06:42:41.820Z,24.60
2023-05-12T06:45:11.510Z,25.52
2023-05-12T06:47:40.955Z,25.60
2023-05-12T06:50:11.398Z,26.14
2023-05-12T06:52:40.324Z,25.67
2023-05-12T06:55:09.787Z,25.47
2023-05-12T06:57:38.567Z,25.50
2023-05-12T07:00:08.361Z,26.09
2023-05-12T07:02:37.386Z,25.91
2023-05-12T07:05:06.672Z,26.49
2023-05-12T07:07:36.873Z,27.40
2023-05-12T07:10:06.713Z,27.43
2023-05-12T07:12:35.364Z,27.03
2023-05-12T07:15:04.619Z,26.94
2023-05-12T07:17:33.538Z,26.87
2023-05-12T07:20:01.873Z,27.06
2023-05-12T07:22:32.483Z,27.69
2023-05-12T07:25:02.580Z,29.42
2023-05-12T07:27:31.037Z,28.96
2023-05-12T07:29:59.338Z,28.16
2023-05-12T07:32:28.167Z,28.15
2023-05-12T07:34:56.649Z,29.11
2023-05-12T07:37:25.474Z,29.20
2023-05-12T07:39:53.786Z,29.68
2023-05-12T07:42:24.350Z,30.52
2023-05-12T07:44:52.568Z,30.64
2023-05-12T07:47:21.089Z,30.57
2023-05-12T07:49:49.448Z,30.47
2023-05-12T07:52:18.013Z,30.49
2023-05-12T07:54:46.211Z,29.81
2023-05-12T07:57:14.820Z,29.31
2023-05-12T07:59:44.848Z,29.35
2023-05-12T08:02:13.532Z,29.39
2023-05-12T08:04:43.858Z,29.36
2023-05-12T08:07:13.869Z,29.85
2023-05-12T08:09:42.489Z,29.35
2023-05-12T08:12:11.392Z,28.90
2023-05-12T08:14:39.807Z,29.36
2023-05-12T08:17:11.019Z,29.79
2023-05-12T08:19:39.208Z,30.06
2023-05-12T08:22:07.706Z,29.68
2023-05-12T08:24:36.161Z,30.64
2023-05-12T08:27:05.080Z,31.21
2023-05-12T08:29:33.221Z,31.62
2023-05-12T08:32:01.731Z,31.06
2023-05-12T08:34:31.797Z,31.17
2023-05-12T08:37:00.465Z,31.03
2023-05-12T08:39:31.079Z,31.53
2023-05-12T08:42:07.228Z,31.20
2023-05-12T08:44:35.646Z,30.37
2023-05-12T08:47:06.011Z,31.28
2023-05-12T08:49:38.863Z,32.78
2023-05-12T08:52:09.743Z,32.53
2023-05-12T08:54:48.701Z,32.18
2023-05-12T08:57:24.603Z,31.06
2023-05-12T08:59:55.850Z,30.54
2023-05-12T09:02:35.012Z,29.89
2023-05-12T09:05:11.859Z,30.54
2023-05-12T09:07:44.977Z,30.37
2023-05-12T09:10:32.318Z,29.96
2023-05-12T09:13:05.626Z,28.65
2023-05-12T09:15:37.947Z,28.45
2023-05-12T09:18:06.931Z,27.83
2023-05-12T09:20:36.834Z,26.22
2023-05-12T09:23:19.773Z,26.69
2023-05-12T09:26:01.331Z,28.00
2023-05-12T09:28:37.256Z,27.66
2023-05-12T09:31:16.684Z,26.05
2023-05-12T09:33:45.285Z,24.41
2023-05-12T09:36:18.360Z,25.32
2023-05-12T09:38:47.046Z,24.58
2023-05-12T09:41:15.238Z,23.27
2023-05-12T09:43:47.292Z,23.93
2023-05-12T09:46:15.857Z,24.55
2023-05-12T09:48:44.726Z,25.14
2023-05-12T09:51:18.465Z,25.25
2023-05-12T09:53:47.044Z,25.14
2023-05-12T09:56:16.340Z,25.32
2023-05-12T09:58:45.964Z,23.52
2023-05-12T10:01:22.776Z,24.20
2023-05-12T10:03:55.006Z,24.37
2023-05-12T10:06:29.652Z,26.30
2023-05-12T10:09:05.804Z,27.49
2023-05-12T10:11:35.247Z,27.23
2023-05-12T10:14:03.947Z,28.36
2023-05-12T10:16:33.227Z,29.76
2023-05-12T10:19:02.001Z,29.78
2023-05-12T10:21:31.834Z,30.98
2023-05-12T10:24:00.674Z,31.35
2023-05-12T10:26:29.710Z,30.92
2023-05-12T10:28:58.737Z,29.28
2023-05-12T10:31:28.215Z,30.01
2023-05-12T10:34:00.196Z,30.74
2023-05-12T10:36:29.194Z,30.10
2023-05-12T10:39:06.812Z,29.59
2023-05-12T10:41:36.531Z,26.65
2023-05-12T10:44:05.194Z,25.69
2023-05-12T10:46:33.607Z,26.37
2023-05-12T10:49:04.532Z,26.11
2023-05-12T10:51:34.582Z,24.91
2023-05-12T10:54:06.038Z,26.47
2023-05-12T10:56:42.135Z,25.31
2023-05-12T10:59:17.631Z,25.28
2023-05-12T11:01:58.900Z,25.90
2023-05-12T11:04:41.082Z,27.61
2023-05-12T11:07:10.571Z,27.90
2023-05-12T11:09:50.728Z,27.87
2023-05-12T11:12:26.771Z,26.06
2023-05-12T11:14:56.809Z,26.10
2023-05-12T11:17:25.658Z,26.05
2023-05-12T11:19:55.579Z,24.41
2023-05-12T11:22:25.207Z,23.15
2023-05-12T11:24:55.401Z,22.73
2023-05-12T11:27:24.403Z,23.27
2023-05-12T11:30:01.064Z,22.88
2023-05-12T11:32:29.996Z,21.77
2023-05-12T11:35:10.843Z,21.45
2023-05-12T11:37:40.350Z,20.46
2023-05-12T11:40:18.198Z,21.14
2023-05-12T11:42:49.257Z,20.63
2023-05-12T11:45:22.871Z,21.72
2023-05-12T11:47:51.546Z,21.09
2023-05-12T11:50:25.918Z,21.30
2023-05-12T11:52:54.763Z,20.48
2023-05-12T11:55:25.685Z,20.91
2023-05-12T11:57:59.355Z,20.81
2023-05-12T12:00:32.387Z,20.61
2023-05-12T12:03:09.008Z,21.17
2023-05-12T12:05:38.857Z,20.21
2023-05-12T12:08:09.076Z,20.04
2023-05-12T12:10:38.986Z,20.11
2023-05-12T12:13:07.521Z,19.85
2023-05-12T12:15:36.125Z,19.53
2023-05-12T12:18:04.493Z,19.43
2023-05-12T12:20:33.368Z,19.50
2023-05-12T12:23:01.755Z,19.91
2023-05-12T12:25:31.404Z,19.65
2023-05-12T12:28:01.121Z,19.55
2023-05-12T12:30:29.882Z,19.99
2023-05-12T12:32:58.320Z,19.40
2023-05-12T12:35:27.026Z,19.10
2023-05-12T12:37:55.662Z,19.22
2023-05-12T12:40:24.251Z,19.08
2023-05-12T12:42:52.673Z,19.49
2023-05-12T12:45:22.798Z,20.23
2023-05-12T12:47:54.967Z,19.75
2023-05-12T12:50:25.248Z,19.14
2023-05-12T12:52:55.316Z,19.79
2023-05-12T12:55:24.301Z,19.58
2023-05-12T12:57:52.816Z,20.24
2023-05-12T13:00:24.484Z,20.97
2023-05-12T13:02:52.911Z,19.79
2023-05-12T13:05:22.001Z,19.82
2023-05-12T13:07:51.542Z,20.01
2023-05-12T13:10:20.269Z,19.96
2023-05-12T13:12:48.862Z,19.95
2023-05-12T13:15:19.406Z,19.84
2023-05-12T13:17:49.685Z,20.00
2023-05-12T13:20:18.360Z,19.63
2023-05-12T13:22:46.928Z,19.69
2023-05-12T13:25:15.809Z,19.83
2023-05-12T13:27:44.288Z,19.81
2023-05-12T13:30:13.897Z,20.11
2023-05-12T13:32:42.746Z,20.25
2023-05-12T13:35:13.706Z,20.53
2023-05-12T13:37:42.053Z,20.44
2023-05-12T13:40:11.644Z,20.34
2023-05-12T13:42:40.170Z,20.43
2023-05-12T13:45:10.532Z,19.57
2023-05-12T13:47:39.425Z,19.57
2023-05-12T13:50:09.239Z,19.64
2023-05-12T13:52:39.381Z,19.43
2023-05-12T13:55:08.400Z,18.99
2023-05-12T13:57:36.701Z,18.43
2023-05-12T14:00:08.633Z,19.06
2023-05-12T14:02:37.660Z,19.42
2023-05-12T14:05:07.754Z,19.26
2023-05-12T14:07:36.070Z,18.93
2023-05-12T14:10:07.257Z,19.48
2023-05-12T14:12:37.111Z,19.39
2023-05-12T14:15:29.101Z,19.52
2023-05-12T14:17:55.495Z,18.75
2023-05-12T14:20:24.681Z,18.74
2023-05-12T14:22:55.652Z,19.33
2023-05-12T14:25:25.518Z,19.83
2023-05-12T14:27:53.883Z,18.86
2023-05-12T14:30:22.891Z,18.65
2023-05-12T14:32:53.320Z,18.91
2023-05-12T14:35:22.434Z,18.96
2023-05-12T14:37:51.123Z,18.13
2023-05-12T14:40:19.685Z,18.69
2023-05-12T14:42:49.561Z,19.26
2023-05-12T14:45:18.370Z,19.22
2023-05-12T14:47:47.265Z,18.73
2023-05-12T14:50:15.978Z,18.17
2023-05-12T14:52:44.639Z,19.01
2023-05-12T14:55:13.937Z,18.49
2023-05-12T14:57:43.278Z,18.59
2023-05-12T15:00:16.125Z,18.65
2023-05-12T15:02:45.655Z,19.20
2023-05-12T15:05:15.336Z,19.57
2023-05-12T15:07:43.923Z,18.92
2023-05-12T15:10:13.025Z,19.17
2023-05-12T15:12:41.374Z,18.85
2023-05-12T15:15:12.060Z,18.21
2023-05-12T15:17:41.763Z,18.90
2023-05-12T15:20:11.126Z,19.19
2023-05-12T15:22:39.409Z,18.50
2023-05-12T15:25:09.702Z,18.94
2023-05-12T15:27:38.343Z,18.35
2023-05-12T15:30:08.366Z,18.31
2023-05-12T15:32:36.897Z,17.94
2023-05-12T15:35:07.661Z,18.83
2023-05-12T15:37:36.119Z,18.67
2023-05-12T15:40:05.562Z,17.68
2023-05-12T15:42:33.891Z,17.84
2023-05-12T15:45:02.660Z,17.76
2023-05-12T15:47:31.178Z,18.05
2023-05-12T15:50:00.013Z,17.87
2023-05-12T15:52:30.130Z,18.78
2023-05-12T15:54:58.855Z,17.85
2023-05-12T15:57:27.327Z,18.13
2023-05-12T15:59:59.902Z,18.02
2023-05-12T16:02:29.697Z,18.73
2023-05-12T16:04:58.403Z,18.27
2023-05-12T16:07:29.453Z,18.50
2023-05-12T16:09:59.963Z,19.40
2023-05-12T16:12:28.225Z,17.86
2023-05-12T16:14:56.756Z,17.93
2023-05-12T16:17:25.095Z,17.96
2023-05-12T16:19:56.326Z,18.00
2023-05-12T16:22:25.329Z,17.70
2023-05-12T16:24:55.755Z,18.18
2023-05-12T16:27:25.886Z,18.36
2023-05-12T16:29:54.657Z,18.14
2023-05-12T16:32:23.612Z,18.55
2023-05-12T16:34:52.228Z,17.91
2023-05-12T16:37:20.521Z,17.91
2023-05-12T16:39:49.045Z,17.63
2023-05-12T16:42:17.227Z,17.26
2023-05-12T16:44:47.420Z,17.72
2023-05-12T16:47:15.819Z,17.86
2023-05-12T16:49:44.412Z,17.56
2023-05-12T16:52:12.759Z,17.59
2023-05-12T16:54:42.291Z,17.23
2023-05-12T16:57:10.706Z,17.08
2023-05-12T16:59:39.820Z,17.67
2023-05-12T17:02:09.839Z,18.28
2023-05-12T17:04:38.781Z,17.39
2023-05-12T17:07:07.524Z,17.39
2023-05-12T17:09:36.490Z,17.26
2023-05-12T17:12:06.952Z,17.43
2023-05-12T17:14:35.819Z,17.52
2023-05-12T17:17:04.637Z,18.25
2023-05-12T17:19:34.883Z,18.04
2023-05-12T17:22:03.798Z,17.91
2023-05-12T17:24:32.606Z,16.89
2023-05-12T17:27:01.355Z,17.28
2023-05-12T17:29:29.958Z,16.76
2023-05-12T17:32:00.177Z,17.22
2023-05-12T17:34:28.941Z,17.05
2023-05-12T17:36:59.365Z,16.72
2023-05-12T17:39:27.924Z,16.49
2023-05-12T17:41:56.224Z,16.59
2023-05-12T17:44:24.805Z,16.76
2023-05-12T17:46:53.151Z,16.63
2023-05-12T17:49:21.816Z,16.30
2023-05-12T17:51:50.686Z,16.54
2023-05-12T17:54:20.700Z,17.02
2023-05-12T17:56:49.096Z,16.30
2023-05-12T17:59:17.800Z,16.50
2023-05-12T18:01:46.142Z,16.02
2023-05-12T18:04:14.748Z,16.18
2023-05-12T18:06:43.960Z,16.11
2023-05-12T18:09:13.747Z,16.65
2023-05-12T18:11:43.955Z,15.94
2023-05-12T18:14:12.513Z,16.23
2023-05-12T18:16:41.091Z,15.67
2023-05-12T18:19:09.911Z,16.03
2023-05-12T18:21:38.325Z,16.14
2023-05-12T18:24:07.552Z,15.63
2023-05-12T18:26:35.883Z,15.47
2023-05-12T18:29:06.092Z,16.02
2023-05-12T18:31:36.247Z,15.68
2023-05-12T18:34:04.818Z,16.14
2023-05-12T18:36:33.399Z,15.59
2023-05-12T18:39:02.020Z,16.08
2023-05-12T18:41:30.423Z,15.92
2023-05-12T18:43:58.984Z,15.99
2023-05-12T18:46:28.675Z,16.27
2023-05-12T18:48:57.329Z,15.82
2023-05-12T18:51:25.658Z,15.42
2023-05-12T18:53:54.247Z,16.01
2023-05-12T18:56:22.711Z,15.61
2023-05-12T18:58:51.308Z,15.68
2023-05-12T19:01:19.972Z,15.63
2023-05-12T19:03:49.860Z,16.31
2023-05-12T19:06:18.274Z,15.49
2023-05-12T19:08:47.153Z,15.50
2023-05-12T19:11:15.395Z,15.43
2023-05-12T19:13:45.630Z,15.02
2023-05-12T19:16:14.035Z,14.95
2023-05-12T19:18:42.741Z,15.31
2023-05-12T19:21:12.663Z,15.57
2023-05-12T19:23:41.260Z,15.64
2023-05-12T19:26:10.953Z,15.36
2023-05-12T19:28:39.499Z,15.54
2023-05-12T19:31:07.816Z,15.23
2023-05-12T19:33:36.306Z,15.46
2023-05-12T19:36:04.622Z,15.35
2023-05-12T19:38:35.071Z,15.61
2023-05-12T19:41:03.249Z,14.95
2023-05-12T19:43:32.032Z,15.34
2023-05-12T19:46:00.522Z,15.53
2023-05-12T19:48:29.206Z,15.27
2023-05-12T19:50:57.635Z,15.13
2023-05-12T19:53:26.882Z,15.34
2023-05-12T19:55:57.423Z,15.41
2023-05-12T19:58:26.525Z,15.12
2023-05-12T20:00:55.868Z,14.81
2023-05-12T20:03:24.726Z,15.16
2023-05-12T20:05:53.210Z,15.10
2023-05-12T20:08:22.219Z,14.89
2023-05-12T20:10:50.602Z,14.32
2023-05-12T20:13:20.579Z,15.07
2023-05-12T20:15:48.812Z,14.81
2023-05-12T20:18:17.568Z,14.86
2023-05-12T20:20:46.023Z,14.92
2023-05-12T20:23:14.588Z,14.79
2023-05-12T20:25:43.398Z,14.58
2023-05-12T20:28:11.991Z,14.97
2023-05-12T20:30:41.950Z,14.97
2023-05-12T20:33:10.453Z,14.65
2023-05-12T20:35:39.049Z,14.58
2023-05-12T20:38:07.752Z,14.38
2023-05-12T20:40:36.171Z,14.87
2023-05-12T20:43:04.761Z,14.75
2023-05-12T20:45:33.370Z,14.78
2023-05-12T20:48:04.845Z,15.06
2023-05-12T20:50:33.113Z,14.63
2023-05-12T20:53:02.003Z,14.49
2023-05-12T20:55:30.306Z,14.84
2023-05-12T20:57:59.047Z,14.73
2023-05-12T21:00:27.246Z,14.65
2023-05-12T21:02:56.218Z,14.65
2023-05-12T21:05:25.936Z,14.93
2023-05-12T21:07:54.677Z,14.91
2023-05-12T21:10:23.350Z,14.88
2023-05-12T21:12:52.317Z,14.69
2023-05-12T21:15:20.708Z,14.42
2023-05-12T21:17:49.782Z,14.79
2023-05-12T21:20:18.199Z,14.15
2023-05-12T21:22:48.433Z,14.78
2023-05-12T21:25:16.728Z,14.90
2023-05-12T21:27:47.496Z,14.58
2023-05-12T21:30:16.273Z,14.82
2023-05-12T21:32:44.905Z,14.79
2023-05-12T21:35:13.626Z,14.52
2023-05-12T21:37:42.264Z,14.56
2023-05-12T21:40:13.262Z,14.71
2023-05-12T21:42:41.871Z,14.56
2023-05-12T21:45:11.104Z,14.60
2023-05-12T21:47:39.967Z,14.89
2023-05-12T21:50:08.530Z,14.55
2023-05-12T21:52:37.400Z,14.39
2023-05-12T21:55:06.447Z,14.47
2023-05-12T21:57:39.806Z,14.65
2023-05-12T22:00:10.255Z,14.44
2023-05-12T22:02:38.716Z,14.38
2023-05-12T22:05:08.725Z,14.32
2023-05-12T22:07:37.324Z,14.24
2023-05-12T22:10:06.184Z,14.28
2023-05-12T22:12:36.907Z,14.57
2023-05-12T22:15:05.969Z,14.70
2023-05-12T22:17:34.862Z,14.63
2023-05-12T22:20:04.248Z,14.82
2023-05-12T22:22:33.042Z,14.86
2023-05-12T22:25:01.301Z,14.57
2023-05-12T22:27:29.964Z,14.65
2023-05-12T22:29:59.930Z,14.74
2023-05-12T22:32:28.499Z,14.40
2023-05-12T22:34:56.847Z,14.64
2023-05-12T22:37:25.873Z,14.82
2023-05-12T22:39:54.788Z,15.00
2023-05-12T22:42:23.706Z,15.18
2023-05-12T22:44:52.009Z,15.19
2023-05-12T22:47:22.151Z,15.53
2023-05-12T22:49:50.632Z,15.19
2023-05-12T22:52:19.126Z,15.23
2023-05-12T22:54:47.458Z,15.18
2023-05-12T22:57:15.931Z,15.17
2023-05-12T22:59:44.393Z,15.13
2023-05-12T23:02:12.863Z,14.81
2023-05-12T23:04:42.562Z,15.26
2023-05-12T23:10:03.191Z,15.07
2023-05-12T23:12:36.453Z,15.33
2023-05-12T23:15:06.054Z,15.04
2023-05-12T23:17:34.675Z,14.96
2023-05-12T23:20:04.814Z,15.20
2023-05-12T23:22:33.430Z,14.89
2023-05-12T23:25:02.201Z,14.77
2023-05-12T23:27:30.630Z,14.81
2023-05-12T23:29:59.210Z,14.73
2023-05-12T23:32:27.896Z,14.44
2023-05-12T23:34:56.473Z,14.44
2023-05-12T23:37:26.990Z,14.62
2023-05-12T23:39:55.247Z,14.35
2023-05-12T23:42:23.929Z,14.13
2023-05-12T23:44:52.101Z,14.01
2023-05-12T23:47:20.818Z,14.00
2023-05-12T23:49:49.054Z,13.78
2023-05-12T23:52:21.002Z,14.02
2023-05-12T23:54:50.859Z,13.96
2023-05-12T23:57:19.425Z,13.93
2023-05-12T23:59:48.242Z,14.09
